sensor_id;sensor_type;location;lat;lon;timestamp;temperature;humidity
12384;DHT22;6256;63.808;20.336;2023-05-29T00:00:58;6.70;99.90
12384;DHT22;6256;63.808;20.336;2023-05-29T00:03:25;6.70;99.90
12384;DHT22;6256;63.808;20.336;2023-05-29T00:05:51;6.60;99.90
12384;DHT22;6256;63.808;20.336;2023-05-29T00:10:43;6.60;99.90
12384;DHT22;6256;63.808;20.336;2023-05-29T00:13:10;6.50;99.90
12384;DHT22;6256;63.808;20.336;2023-05-29T00:15:36;6.50;99.90
12384;DHT22;6256;63.808;20.336;2023-05-29T00:18:01;6.50;99.90
12384;DHT22;6256;63.808;20.336;2023-05-29T00:20:27;6.50;99.90
12384;DHT22;6256;63.808;20.336;2023-05-29T00:22:53;6.50;99.90
12384;DHT22;6256;63.808;20.336;2023-05-29T00:30:11;6.30;99.90
12384;DHT22;6256;63.808;20.336;2023-05-29T00:32:37;6.40;99.90
12384;DHT22;6256;63.808;20.336;2023-05-29T00:35:03;6.40;99.90
12384;DHT22;6256;63.808;20.336;2023-05-29T00:39:55;6.40;99.90
12384;DHT22;6256;63.808;20.336;2023-05-29T00:44:47;6.30;99.90
12384;DHT22;6256;63.808;20.336;2023-05-29T00:47:12;6.20;99.90
12384;DHT22;6256;63.808;20.336;2023-05-29T00:52:05;6.10;99.90
12384;DHT22;6256;63.808;20.336;2023-05-29T00:54:33;6.10;99.90
12384;DHT22;6256;63.808;20.336;2023-05-29T00:57:01;6.10;99.90
12384;DHT22;6256;63.808;20.336;2023-05-29T00:59:31;6.10;99.90
12384;DHT22;6256;63.808;20.336;2023-05-29T01:04:28;6.00;99.90
12384;DHT22;6256;63.808;20.336;2023-05-29T01:06:53;5.90;99.90
12384;DHT22;6256;63.808;20.336;2023-05-29T01:09:20;5.90;99.90
12384;DHT22;6256;63.808;20.336;2023-05-29T01:12:10;5.90;99.90
12384;DHT22;6256;63.808;20.336;2023-05-29T01:20:24;5.90;99.90
12384;DHT22;6256;63.808;20.336;2023-05-29T01:23:07;5.90;99.90
12384;DHT22;6256;63.808;20.336;2023-05-29T01:28:33;5.90;99.90
12384;DHT22;6256;63.808;20.336;2023-05-29T01:31:03;5.90;99.90
12384;DHT22;6256;63.808;20.336;2023-05-29T01:35:55;5.80;99.90
12384;DHT22;6256;63.808;20.336;2023-05-29T01:38:21;5.80;99.90
12384;DHT22;6256;63.808;20.336;2023-05-29T01:40:47;5.80;99.90
12384;DHT22;6256;63.808;20.336;2023-05-29T01:43:13;5.80;99.90
12384;DHT22;6256;63.808;20.336;2023-05-29T01:45:39;5.80;99.90
12384;DHT22;6256;63.808;20.336;2023-05-29T01:48:06;5.80;99.90
12384;DHT22;6256;63.808;20.336;2023-05-29T01:50:32;5.80;99.90
12384;DHT22;6256;63.808;20.336;2023-05-29T01:52:58;5.80;99.90
12384;DHT22;6256;63.808;20.336;2023-05-29T01:55:24;5.80;99.90
12384;DHT22;6256;63.808;20.336;2023-05-29T01:57:50;5.80;99.90
12384;DHT22;6256;63.808;20.336;2023-05-29T02:00:17;5.70;99.90
12384;DHT22;6256;63.808;20.336;2023-05-29T02:02:44;5.70;99.90
12384;DHT22;6256;63.808;20.336;2023-05-29T02:05:10;5.80;99.90
12384;DHT22;6256;63.808;20.336;2023-05-29T02:07:36;5.80;99.90
12384;DHT22;6256;63.808;20.336;2023-05-29T02:10:05;5.70;99.90
12384;DHT22;6256;63.808;20.336;2023-05-29T02:12:31;5.80;99.90
12384;DHT22;6256;63.808;20.336;2023-05-29T02:14:57;5.80;99.90
12384;DHT22;6256;63.808;20.336;2023-05-29T02:17:23;5.80;99.90
12384;DHT22;6256;63.808;20.336;2023-05-29T02:19:50;5.70;99.90
12384;DHT22;6256;63.808;20.336;2023-05-29T02:22:17;5.70;99.90
12384;DHT22;6256;63.808;20.336;2023-05-29T02:24:43;5.80;99.90
12384;DHT22;6256;63.808;20.336;2023-05-29T02:27:08;5.80;99.90
12384;DHT22;6256;63.808;20.336;2023-05-29T02:29:34;5.80;99.90
12384;DHT22;6256;63.808;20.336;2023-05-29T02:32:00;5.80;99.90
12384;DHT22;6256;63.808;20.336;2023-05-29T02:34:26;5.80;99.90
12384;DHT22;6256;63.808;20.336;2023-05-29T02:36:52;5.80;99.90
12384;DHT22;6256;63.808;20.336;2023-05-29T02:39:18;5.80;99.90
12384;DHT22;6256;63.808;20.336;2023-05-29T02:41:44;5.80;99.90
12384;DHT22;6256;63.808;20.336;2023-05-29T02:44:10;5.80;99.90
12384;DHT22;6256;63.808;20.336;2023-05-29T02:46:36;5.90;99.90
12384;DHT22;6256;63.808;20.336;2023-05-29T02:49:02;5.90;99.90
12384;DHT22;6256;63.808;20.336;2023-05-29T02:51:27;5.90;99.90
12384;DHT22;6256;63.808;20.336;2023-05-29T02:53:53;5.90;99.90
12384;DHT22;6256;63.808;20.336;2023-05-29T02:56:19;6.00;99.90
12384;DHT22;6256;63.808;20.336;2023-05-29T02:58:50;6.00;99.90
12384;DHT22;6256;63.808;20.336;2023-05-29T03:01:16;6.00;99.90
12384;DHT22;6256;63.808;20.336;2023-05-29T03:03:41;6.00;99.90
12384;DHT22;6256;63.808;20.336;2023-05-29T03:06:07;6.00;99.90
12384;DHT22;6256;63.808;20.336;2023-05-29T03:08:34;6.10;99.90
12384;DHT22;6256;63.808;20.336;2023-05-29T03:11:00;6.10;99.90
12384;DHT22;6256;63.808;20.336;2023-05-29T03:13:26;6.10;99.90
12384;DHT22;6256;63.808;20.336;2023-05-29T03:15:53;6.10;99.90
12384;DHT22;6256;63.808;20.336;2023-05-29T03:18:23;6.10;99.90
12384;DHT22;6256;63.808;20.336;2023-05-29T03:20:49;6.20;99.90
12384;DHT22;6256;63.808;20.336;2023-05-29T03:23:14;6.20;99.90
12384;DHT22;6256;63.808;20.336;2023-05-29T03:25:40;6.20;99.90
12384;DHT22;6256;63.808;20.336;2023-05-29T03:28:06;6.30;99.90
12384;DHT22;6256;63.808;20.336;2023-05-29T03:30:31;6.30;99.90
12384;DHT22;6256;63.808;20.336;2023-05-29T03:32:57;6.30;99.90
12384;DHT22;6256;63.808;20.336;2023-05-29T03:35:29;6.30;99.90
12384;DHT22;6256;63.808;20.336;2023-05-29T03:37:54;6.40;99.90
12384;DHT22;6256;63.808;20.336;2023-05-29T03:40:20;6.40;99.90
12384;DHT22;6256;63.808;20.336;2023-05-29T03:42:46;6.50;99.90
12384;DHT22;6256;63.808;20.336;2023-05-29T03:45:11;6.40;99.90
12384;DHT22;6256;63.808;20.336;2023-05-29T03:47:37;6.50;99.90
12384;DHT22;6256;63.808;20.336;2023-05-29T03:50:03;6.50;99.90
12384;DHT22;6256;63.808;20.336;2023-05-29T03:52:29;6.60;99.90
12384;DHT22;6256;63.808;20.336;2023-05-29T03:54:55;6.50;99.90
12384;DHT22;6256;63.808;20.336;2023-05-29T03:57:20;6.60;99.90
12384;DHT22;6256;63.808;20.336;2023-05-29T03:59:46;6.60;99.90
12384;DHT22;6256;63.808;20.336;2023-05-29T04:02:12;6.70;99.90
12384;DHT22;6256;63.808;20.336;2023-05-29T04:04:37;6.70;99.90
12384;DHT22;6256;63.808;20.336;2023-05-29T04:07:05;6.70;99.90
12384;DHT22;6256;63.808;20.336;2023-05-29T04:09:33;6.80;99.90
12384;DHT22;6256;63.808;20.336;2023-05-29T04:11:59;6.80;99.90
12384;DHT22;6256;63.808;20.336;2023-05-29T04:14:27;6.90;99.90
12384;DHT22;6256;63.808;20.336;2023-05-29T04:16:53;6.90;99.90
12384;DHT22;6256;63.808;20.336;2023-05-29T04:19:19;6.90;99.90
12384;DHT22;6256;63.808;20.336;2023-05-29T04:21:46;7.00;99.90
12384;DHT22;6256;63.808;20.336;2023-05-29T04:24:14;7.00;99.90
12384;DHT22;6256;63.808;20.336;2023-05-29T04:26:42;7.10;99.90
12384;DHT22;6256;63.808;20.336;2023-05-29T04:29:08;7.10;99.90
12384;DHT22;6256;63.808;20.336;2023-05-29T04:31:34;7.10;99.90
12384;DHT22;6256;63.808;20.336;2023-05-29T04:34:02;7.20;99.90
12384;DHT22;6256;63.808;20.336;2023-05-29T04:36:30;7.30;99.90
12384;DHT22;6256;63.808;20.336;2023-05-29T04:38:58;7.30;99.90
12384;DHT22;6256;63.808;20.336;2023-05-29T04:41:24;7.40;99.90
12384;DHT22;6256;63.808;20.336;2023-05-29T04:43:55;7.40;99.60
12384;DHT22;6256;63.808;20.336;2023-05-29T04:46:25;7.50;99.90
12384;DHT22;6256;63.808;20.336;2023-05-29T04:48:53;7.50;99.40
12384;DHT22;6256;63.808;20.336;2023-05-29T04:51:20;7.60;99.20
12384;DHT22;6256;63.808;20.336;2023-05-29T04:53:47;7.60;99.50
12384;DHT22;6256;63.808;20.336;2023-05-29T04:56:13;7.70;99.60
12384;DHT22;6256;63.808;20.336;2023-05-29T04:58:40;7.70;99.60
12384;DHT22;6256;63.808;20.336;2023-05-29T05:01:07;7.80;99.00
12384;DHT22;6256;63.808;20.336;2023-05-29T05:03:33;7.80;98.90
12384;DHT22;6256;63.808;20.336;2023-05-29T05:06:03;7.90;99.10
12384;DHT22;6256;63.808;20.336;2023-05-29T05:08:30;7.90;98.40
12384;DHT22;6256;63.808;20.336;2023-05-29T05:10:57;8.00;98.50
12384;DHT22;6256;63.808;20.336;2023-05-29T05:13:24;8.00;98.60
12384;DHT22;6256;63.808;20.336;2023-05-29T05:15:49;8.00;97.80
12384;DHT22;6256;63.808;20.336;2023-05-29T05:20:41;8.20;98.20
12384;DHT22;6256;63.808;20.336;2023-05-29T05:23:07;8.30;98.80
12384;DHT22;6256;63.808;20.336;2023-05-29T05:25:33;8.40;98.70
12384;DHT22;6256;63.808;20.336;2023-05-29T05:28:01;8.40;97.50
12384;DHT22;6256;63.808;20.336;2023-05-29T05:30:26;8.50;97.00
12384;DHT22;6256;63.808;20.336;2023-05-29T05:32:52;8.50;97.40
12384;DHT22;6256;63.808;20.336;2023-05-29T05:35:18;8.60;96.70
12384;DHT22;6256;63.808;20.336;2023-05-29T05:37:44;8.60;96.40
12384;DHT22;6256;63.808;20.336;2023-05-29T05:40:10;8.60;96.80
12384;DHT22;6256;63.808;20.336;2023-05-29T05:42:36;8.60;95.90
12384;DHT22;6256;63.808;20.336;2023-05-29T05:45:01;8.70;96.80
12384;DHT22;6256;63.808;20.336;2023-05-29T05:47:28;8.80;96.80
12384;DHT22;6256;63.808;20.336;2023-05-29T05:49:54;8.80;96.80
12384;DHT22;6256;63.808;20.336;2023-05-29T05:52:20;8.80;95.80
12384;DHT22;6256;63.808;20.336;2023-05-29T05:54:46;9.00;97.80
12384;DHT22;6256;63.808;20.336;2023-05-29T05:57:11;9.00;95.10
12384;DHT22;6256;63.808;20.336;2023-05-29T05:59:37;9.00;95.10
12384;DHT22;6256;63.808;20.336;2023-05-29T06:02:03;9.10;95.30
12384;DHT22;6256;63.808;20.336;2023-05-29T06:04:29;9.20;95.40
12384;DHT22;6256;63.808;20.336;2023-05-29T06:06:55;9.20;94.90
12384;DHT22;6256;63.808;20.336;2023-05-29T06:09:21;9.30;94.40
12384;DHT22;6256;63.808;20.336;2023-05-29T06:11:47;9.30;94.50
12384;DHT22;6256;63.808;20.336;2023-05-29T06:14:14;9.40;95.00
12384;DHT22;6256;63.808;20.336;2023-05-29T06:16:40;9.60;95.70
12384;DHT22;6256;63.808;20.336;2023-05-29T06:19:05;9.50;93.40
12384;DHT22;6256;63.808;20.336;2023-05-29T06:21:31;9.50;94.10
12384;DHT22;6256;63.808;20.336;2023-05-29T06:23:57;9.50;92.90
12384;DHT22;6256;63.808;20.336;2023-05-29T06:26:23;9.50;93.30
12384;DHT22;6256;63.808;20.336;2023-05-29T06:28:50;9.70;93.70
12384;DHT22;6256;63.808;20.336;2023-05-29T06:31:16;9.70;94.10
12384;DHT22;6256;63.808;20.336;2023-05-29T06:33:42;9.80;94.10
12384;DHT22;6256;63.808;20.336;2023-05-29T06:36:08;9.80;92.30
12384;DHT22;6256;63.808;20.336;2023-05-29T06:38:34;9.80;92.30
12384;DHT22;6256;63.808;20.336;2023-05-29T06:40:59;9.80;93.30
12384;DHT22;6256;63.808;20.336;2023-05-29T06:43:26;9.80;93.10
12384;DHT22;6256;63.808;20.336;2023-05-29T06:45:52;9.90;93.40
12384;DHT22;6256;63.808;20.336;2023-05-29T06:48:18;9.90;92.50
12384;DHT22;6256;63.808;20.336;2023-05-29T06:50:44;10.00;92.40
12384;DHT22;6256;63.808;20.336;2023-05-29T06:53:09;10.00;91.30
12384;DHT22;6256;63.808;20.336;2023-05-29T06:55:35;10.10;92.70
12384;DHT22;6256;63.808;20.336;2023-05-29T06:58:01;10.20;92.90
12384;DHT22;6256;63.808;20.336;2023-05-29T07:00:27;10.20;93.20
12384;DHT22;6256;63.808;20.336;2023-05-29T07:02:53;10.30;91.70
12384;DHT22;6256;63.808;20.336;2023-05-29T07:05:19;10.30;91.50
12384;DHT22;6256;63.808;20.336;2023-05-29T07:07:45;10.30;90.70
12384;DHT22;6256;63.808;20.336;2023-05-29T07:10:10;10.30;91.90
12384;DHT22;6256;63.808;20.336;2023-05-29T07:12:36;10.40;92.40
12384;DHT22;6256;63.808;20.336;2023-05-29T07:15:02;10.40;90.40
12384;DHT22;6256;63.808;20.336;2023-05-29T07:19:54;10.70;91.90
12384;DHT22;6256;63.808;20.336;2023-05-29T07:22:19;10.80;92.30
12384;DHT22;6256;63.808;20.336;2023-05-29T07:24:45;10.70;89.30
12384;DHT22;6256;63.808;20.336;2023-05-29T07:27:11;10.80;91.20
12384;DHT22;6256;63.808;20.336;2023-05-29T07:29:37;10.90;91.20
12384;DHT22;6256;63.808;20.336;2023-05-29T07:32:02;10.80;89.60
12384;DHT22;6256;63.808;20.336;2023-05-29T07:34:28;10.80;89.50
12384;DHT22;6256;63.808;20.336;2023-05-29T07:37:05;10.70;89.20
12384;DHT22;6256;63.808;20.336;2023-05-29T07:39:32;10.80;89.20
12384;DHT22;6256;63.808;20.336;2023-05-29T07:42:02;10.80;88.30
12384;DHT22;6256;63.808;20.336;2023-05-29T07:44:28;10.80;88.60
12384;DHT22;6256;63.808;20.336;2023-05-29T07:46:54;11.00;89.80
12384;DHT22;6256;63.808;20.336;2023-05-29T07:49:20;11.10;90.20
12384;DHT22;6256;63.808;20.336;2023-05-29T07:51:46;11.10;88.00
12384;DHT22;6256;63.808;20.336;2023-05-29T07:54:12;11.10;88.20
12384;DHT22;6256;63.808;20.336;2023-05-29T07:56:38;11.20;88.20
12384;DHT22;6256;63.808;20.336;2023-05-29T07:59:06;11.30;88.90
12384;DHT22;6256;63.808;20.336;2023-05-29T08:01:32;11.10;88.10
12384;DHT22;6256;63.808;20.336;2023-05-29T08:03:59;11.10;89.90
12384;DHT22;6256;63.808;20.336;2023-05-29T08:06:24;11.10;88.10
12384;DHT22;6256;63.808;20.336;2023-05-29T08:08:50;11.20;87.60
12384;DHT22;6256;63.808;20.336;2023-05-29T08:11:17;11.20;88.10
12384;DHT22;6256;63.808;20.336;2023-05-29T08:13:43;11.30;87.30
12384;DHT22;6256;63.808;20.336;2023-05-29T08:16:09;11.50;89.60
12384;DHT22;6256;63.808;20.336;2023-05-29T08:18:34;11.50;83.00
12384;DHT22;6256;63.808;20.336;2023-05-29T08:21:02;11.30;81.20
12384;DHT22;6256;63.808;20.336;2023-05-29T08:25:53;11.80;84.10
12384;DHT22;6256;63.808;20.336;2023-05-29T08:28:19;11.40;81.50
12384;DHT22;6256;63.808;20.336;2023-05-29T08:33:11;11.90;82.80
12384;DHT22;6256;63.808;20.336;2023-05-29T08:35:37;11.90;83.70
12384;DHT22;6256;63.808;20.336;2023-05-29T08:38:03;11.90;83.10
12384;DHT22;6256;63.808;20.336;2023-05-29T08:40:28;12.10;86.20
12384;DHT22;6256;63.808;20.336;2023-05-29T08:43:01;12.20;81.40
12384;DHT22;6256;63.808;20.336;2023-05-29T08:47:58;12.60;81.40
12384;DHT22;6256;63.808;20.336;2023-05-29T08:50:26;12.40;79.50
12384;DHT22;6256;63.808;20.336;2023-05-29T08:52:52;12.40;79.20
12384;DHT22;6256;63.808;20.336;2023-05-29T08:55:18;12.30;78.10
12384;DHT22;6256;63.808;20.336;2023-05-29T08:57:44;12.60;79.10
12384;DHT22;6256;63.808;20.336;2023-05-29T09:02:44;12.60;79.40
12384;DHT22;6256;63.808;20.336;2023-05-29T09:07:39;12.80;77.40
12384;DHT22;6256;63.808;20.336;2023-05-29T09:10:06;12.80;81.20
12384;DHT22;6256;63.808;20.336;2023-05-29T09:14:58;13.00;76.50
12384;DHT22;6256;63.808;20.336;2023-05-29T09:17:24;13.10;77.80
12384;DHT22;6256;63.808;20.336;2023-05-29T09:19:55;13.10;78.30
12384;DHT22;6256;63.808;20.336;2023-05-29T09:22:21;12.90;76.90
12384;DHT22;6256;63.808;20.336;2023-05-29T09:24:48;13.10;77.30
12384;DHT22;6256;63.808;20.336;2023-05-29T09:27:14;13.00;80.40
12384;DHT22;6256;63.808;20.336;2023-05-29T09:29:45;13.40;77.40
12384;DHT22;6256;63.808;20.336;2023-05-29T09:32:15;13.60;79.10
12384;DHT22;6256;63.808;20.336;2023-05-29T09:34:42;13.60;76.50
12384;DHT22;6256;63.808;20.336;2023-05-29T09:37:09;13.30;73.30
12384;DHT22;6256;63.808;20.336;2023-05-29T09:42:12;13.40;74.90
12384;DHT22;6256;63.808;20.336;2023-05-29T09:44:39;13.00;70.40
12384;DHT22;6256;63.808;20.336;2023-05-29T09:47:05;12.90;72.40
12384;DHT22;6256;63.808;20.336;2023-05-29T09:49:32;13.00;73.50
12384;DHT22;6256;63.808;20.336;2023-05-29T09:51:58;13.10;75.00
12384;DHT22;6256;63.808;20.336;2023-05-29T09:54:29;13.80;76.20
12384;DHT22;6256;63.808;20.336;2023-05-29T09:56:57;13.90;76.60
12384;DHT22;6256;63.808;20.336;2023-05-29T09:59:24;14.50;75.50
12384;DHT22;6256;63.808;20.336;2023-05-29T10:02:02;14.70;75.30
12384;DHT22;6256;63.808;20.336;2023-05-29T10:04:30;14.80;75.50
12384;DHT22;6256;63.808;20.336;2023-05-29T10:07:03;14.00;72.80
12384;DHT22;6256;63.808;20.336;2023-05-29T10:09:31;14.00;73.60
12384;DHT22;6256;63.808;20.336;2023-05-29T10:11:59;13.80;72.00
12384;DHT22;6256;63.808;20.336;2023-05-29T10:14:29;13.80;71.90
12384;DHT22;6256;63.808;20.336;2023-05-29T10:16:58;13.50;69.80
12384;DHT22;6256;63.808;20.336;2023-05-29T10:19:29;13.50;71.50
12384;DHT22;6256;63.808;20.336;2023-05-29T10:21:55;13.70;70.70
12384;DHT22;6256;63.808;20.336;2023-05-29T10:24:26;14.00;72.50
12384;DHT22;6256;63.808;20.336;2023-05-29T10:26:52;14.30;71.10
12384;DHT22;6256;63.808;20.336;2023-05-29T10:29:34;14.00;67.80
12384;DHT22;6256;63.808;20.336;2023-05-29T10:32:29;13.50;68.20
12384;DHT22;6256;63.808;20.336;2023-05-29T10:35:12;13.30;69.60
12384;DHT22;6256;63.808;20.336;2023-05-29T10:38:00;13.70;71.90
12384;DHT22;6256;63.808;20.336;2023-05-29T10:40:28;13.80;70.70
12384;DHT22;6256;63.808;20.336;2023-05-29T10:42:54;13.40;68.80
12384;DHT22;6256;63.808;20.336;2023-05-29T10:53:08;14.20;70.00
12384;DHT22;6256;63.808;20.336;2023-05-29T10:55:38;14.30;67.00
12384;DHT22;6256;63.808;20.336;2023-05-29T10:58:20;14.60;67.50
12384;DHT22;6256;63.808;20.336;2023-05-29T11:08:32;16.80;62.50
12384;DHT22;6256;63.808;20.336;2023-05-29T11:10:59;16.90;61.40
12384;DHT22;6256;63.808;20.336;2023-05-29T11:13:33;16.80;60.00
12384;DHT22;6256;63.808;20.336;2023-05-29T11:16:19;17.10;60.00
12384;DHT22;6256;63.808;20.336;2023-05-29T11:18:47;16.30;59.20
12384;DHT22;6256;63.808;20.336;2023-05-29T11:24:00;17.90;64.00
12384;DHT22;6256;63.808;20.336;2023-05-29T11:26:29;18.80;63.20
12384;DHT22;6256;63.808;20.336;2023-05-29T11:29:08;18.80;59.90
12384;DHT22;6256;63.808;20.336;2023-05-29T11:31:37;18.30;58.40
12384;DHT22;6256;63.808;20.336;2023-05-29T11:34:04;18.00;57.70
12384;DHT22;6256;63.808;20.336;2023-05-29T11:36:34;17.40;58.60
12384;DHT22;6256;63.808;20.336;2023-05-29T11:39:01;16.50;56.40
12384;DHT22;6256;63.808;20.336;2023-05-29T11:41:27;16.20;58.20
12384;DHT22;6256;63.808;20.336;2023-05-29T11:44:00;16.30;57.50
12384;DHT22;6256;63.808;20.336;2023-05-29T11:46:31;16.50;58.90
12384;DHT22;6256;63.808;20.336;2023-05-29T11:48:58;16.00;58.80
12384;DHT22;6256;63.808;20.336;2023-05-29T11:51:25;16.10;59.50
12384;DHT22;6256;63.808;20.336;2023-05-29T11:53:51;16.60;60.00
12384;DHT22;6256;63.808;20.336;2023-05-29T11:56:18;16.60;63.00
12384;DHT22;6256;63.808;20.336;2023-05-29T11:58:44;15.50;60.10
12384;DHT22;6256;63.808;20.336;2023-05-29T12:01:11;15.20;61.80
12384;DHT22;6256;63.808;20.336;2023-05-29T12:03:43;15.00;61.60
12384;DHT22;6256;63.808;20.336;2023-05-29T12:06:09;14.80;62.50
12384;DHT22;6256;63.808;20.336;2023-05-29T12:08:39;14.60;63.70
12384;DHT22;6256;63.808;20.336;2023-05-29T12:11:05;14.90;64.20
12384;DHT22;6256;63.808;20.336;2023-05-29T12:13:31;16.00;64.20
12384;DHT22;6256;63.808;20.336;2023-05-29T12:15:59;16.30;61.80
12384;DHT22;6256;63.808;20.336;2023-05-29T12:18:26;15.90;61.80
12384;DHT22;6256;63.808;20.336;2023-05-29T12:21:00;15.90;61.20
12384;DHT22;6256;63.808;20.336;2023-05-29T12:23:28;15.80;64.00
12384;DHT22;6256;63.808;20.336;2023-05-29T12:25:54;15.40;63.80
12384;DHT22;6256;63.808;20.336;2023-05-29T12:28:20;15.80;63.40
12384;DHT22;6256;63.808;20.336;2023-05-29T12:30:47;15.70;64.00
12384;DHT22;6256;63.808;20.336;2023-05-29T12:33:29;15.40;63.50
12384;DHT22;6256;63.808;20.336;2023-05-29T12:36:04;15.50;63.40
12384;DHT22;6256;63.808;20.336;2023-05-29T12:38:32;15.60;61.70
12384;DHT22;6256;63.808;20.336;2023-05-29T12:40:57;15.80;61.30
12384;DHT22;6256;63.808;20.336;2023-05-29T12:43:23;17.10;62.60
12384;DHT22;6256;63.808;20.336;2023-05-29T12:45:58;17.80;60.50
12384;DHT22;6256;63.808;20.336;2023-05-29T12:48:27;17.00;62.40
12384;DHT22;6256;63.808;20.336;2023-05-29T12:50:53;17.10;61.30
12384;DHT22;6256;63.808;20.336;2023-05-29T12:53:19;17.40;63.50
12384;DHT22;6256;63.808;20.336;2023-05-29T12:55:46;18.80;62.00
12384;DHT22;6256;63.808;20.336;2023-05-29T12:58:14;19.20;59.10
12384;DHT22;6256;63.808;20.336;2023-05-29T13:00:42;19.00;58.30
12384;DHT22;6256;63.808;20.336;2023-05-29T13:03:08;18.00;57.80
12384;DHT22;6256;63.808;20.336;2023-05-29T13:05:36;18.00;61.70
12384;DHT22;6256;63.808;20.336;2023-05-29T13:08:02;17.60;60.30
12384;DHT22;6256;63.808;20.336;2023-05-29T13:10:30;18.00;61.70
12384;DHT22;6256;63.808;20.336;2023-05-29T13:12:56;16.70;60.70
12384;DHT22;6256;63.808;20.336;2023-05-29T13:15:24;16.60;60.50
12384;DHT22;6256;63.808;20.336;2023-05-29T13:17:51;16.30;59.30
12384;DHT22;6256;63.808;20.336;2023-05-29T13:20:17;17.50;60.80
12384;DHT22;6256;63.808;20.336;2023-05-29T13:22:45;17.90;59.50
12384;DHT22;6256;63.808;20.336;2023-05-29T13:25:12;17.10;59.50
12384;DHT22;6256;63.808;20.336;2023-05-29T13:27:41;17.10;61.00
12384;DHT22;6256;63.808;20.336;2023-05-29T13:30:08;16.50;59.50
12384;DHT22;6256;63.808;20.336;2023-05-29T13:32:35;16.90;62.10
12384;DHT22;6256;63.808;20.336;2023-05-29T13:35:01;18.00;61.40
12384;DHT22;6256;63.808;20.336;2023-05-29T13:37:27;18.20;59.30
12384;DHT22;6256;63.808;20.336;2023-05-29T13:39:53;18.80;61.20
12384;DHT22;6256;63.808;20.336;2023-05-29T13:42:20;18.60;61.20
12384;DHT22;6256;63.808;20.336;2023-05-29T13:44:47;17.80;63.20
12384;DHT22;6256;63.808;20.336;2023-05-29T13:47:13;17.30;60.70
12384;DHT22;6256;63.808;20.336;2023-05-29T13:49:39;17.60;61.00
12384;DHT22;6256;63.808;20.336;2023-05-29T13:52:05;18.80;62.00
12384;DHT22;6256;63.808;20.336;2023-05-29T13:54:31;18.40;59.60
12384;DHT22;6256;63.808;20.336;2023-05-29T13:57:02;17.90;59.20
12384;DHT22;6256;63.808;20.336;2023-05-29T13:59:32;17.40;60.80
12384;DHT22;6256;63.808;20.336;2023-05-29T14:01:58;16.90;63.40
12384;DHT22;6256;63.808;20.336;2023-05-29T14:04:24;16.50;62.20
12384;DHT22;6256;63.808;20.336;2023-05-29T14:06:50;16.60;62.50
12384;DHT22;6256;63.808;20.336;2023-05-29T14:09:16;17.20;63.60
12384;DHT22;6256;63.808;20.336;2023-05-29T14:11:44;17.30;63.60
12384;DHT22;6256;63.808;20.336;2023-05-29T14:14:10;17.00;62.50
12384;DHT22;6256;63.808;20.336;2023-05-29T14:16:35;17.00;63.20
12384;DHT22;6256;63.808;20.336;2023-05-29T14:19:04;16.20;62.50
12384;DHT22;6256;63.808;20.336;2023-05-29T14:21:30;15.70;64.10
12384;DHT22;6256;63.808;20.336;2023-05-29T14:23:55;15.60;64.80
12384;DHT22;6256;63.808;20.336;2023-05-29T14:26:21;15.80;66.30
12384;DHT22;6256;63.808;20.336;2023-05-29T14:28:47;16.30;66.70
12384;DHT22;6256;63.808;20.336;2023-05-29T14:31:14;16.70;66.30
12384;DHT22;6256;63.808;20.336;2023-05-29T14:33:40;16.50;64.00
12384;DHT22;6256;63.808;20.336;2023-05-29T14:36:05;16.40;64.20
12384;DHT22;6256;63.808;20.336;2023-05-29T14:38:31;16.30;64.20
12384;DHT22;6256;63.808;20.336;2023-05-29T14:40:57;16.10;63.10
12384;DHT22;6256;63.808;20.336;2023-05-29T14:43:23;16.20;64.80
12384;DHT22;6256;63.808;20.336;2023-05-29T14:45:48;15.90;64.10
12384;DHT22;6256;63.808;20.336;2023-05-29T14:48:14;15.60;66.20
12384;DHT22;6256;63.808;20.336;2023-05-29T14:50:42;14.80;65.40
12384;DHT22;6256;63.808;20.336;2023-05-29T14:53:07;14.90;68.50
12384;DHT22;6256;63.808;20.336;2023-05-29T14:55:33;14.90;67.40
12384;DHT22;6256;63.808;20.336;2023-05-29T14:58:03;14.40;66.60
12384;DHT22;6256;63.808;20.336;2023-05-29T15:00:29;14.60;67.60
12384;DHT22;6256;63.808;20.336;2023-05-29T15:02:55;14.50;67.20
12384;DHT22;6256;63.808;20.336;2023-05-29T15:05:27;14.10;67.60
12384;DHT22;6256;63.808;20.336;2023-05-29T15:07:53;14.00;68.00
12384;DHT22;6256;63.808;20.336;2023-05-29T15:10:26;14.10;68.10
12384;DHT22;6256;63.808;20.336;2023-05-29T15:12:53;14.30;68.50
12384;DHT22;6256;63.808;20.336;2023-05-29T15:15:28;14.70;69.10
12384;DHT22;6256;63.808;20.336;2023-05-29T15:17:55;15.40;67.80
12384;DHT22;6256;63.808;20.336;2023-05-29T15:20:24;16.20;67.50
12384;DHT22;6256;63.808;20.336;2023-05-29T15:22:51;15.30;66.60
12384;DHT22;6256;63.808;20.336;2023-05-29T15:25:18;15.20;67.50
12384;DHT22;6256;63.808;20.336;2023-05-29T15:27:44;15.10;69.40
12384;DHT22;6256;63.808;20.336;2023-05-29T15:30:17;14.30;69.30
12384;DHT22;6256;63.808;20.336;2023-05-29T15:32:45;14.20;71.10
12384;DHT22;6256;63.808;20.336;2023-05-29T15:35:13;14.10;72.40
12384;DHT22;6256;63.808;20.336;2023-05-29T15:37:41;13.90;71.80
12384;DHT22;6256;63.808;20.336;2023-05-29T15:40:08;13.70;74.00
12384;DHT22;6256;63.808;20.336;2023-05-29T15:42:37;13.60;74.00
12384;DHT22;6256;63.808;20.336;2023-05-29T15:45:04;13.50;72.40
12384;DHT22;6256;63.808;20.336;2023-05-29T15:52:23;12.70;72.90
12384;DHT22;6256;63.808;20.336;2023-05-29T15:57:15;12.50;93.10
12384;DHT22;6256;63.808;20.336;2023-05-29T15:59:41;12.40;75.90
12384;DHT22;6256;63.808;20.336;2023-05-29T16:02:07;12.60;77.70
12384;DHT22;6256;63.808;20.336;2023-05-29T16:04:34;12.40;75.90
12384;DHT22;6256;63.808;20.336;2023-05-29T16:07:00;12.50;76.40
12384;DHT22;6256;63.808;20.336;2023-05-29T16:09:27;12.40;78.90
12384;DHT22;6256;63.808;20.336;2023-05-29T16:11:53;12.10;77.60
12384;DHT22;6256;63.808;20.336;2023-05-29T16:14:19;12.00;79.90
12384;DHT22;6256;63.808;20.336;2023-05-29T16:16:45;11.60;85.00
12384;DHT22;6256;63.808;20.336;2023-05-29T16:19:11;11.60;87.30
12384;DHT22;6256;63.808;20.336;2023-05-29T16:24:03;11.50;87.40
12384;DHT22;6256;63.808;20.336;2023-05-29T16:26:29;11.40;89.60
12384;DHT22;6256;63.808;20.336;2023-05-29T16:29:00;11.30;90.70
12384;DHT22;6256;63.808;20.336;2023-05-29T16:31:27;11.40;91.40
12384;DHT22;6256;63.808;20.336;2023-05-29T16:33:54;11.40;91.90
12384;DHT22;6256;63.808;20.336;2023-05-29T16:36:20;11.40;94.00
12384;DHT22;6256;63.808;20.336;2023-05-29T16:38:46;11.10;94.20
12384;DHT22;6256;63.808;20.336;2023-05-29T16:41:12;11.10;94.60
12384;DHT22;6256;63.808;20.336;2023-05-29T16:43:37;11.00;94.50
12384;DHT22;6256;63.808;20.336;2023-05-29T16:46:03;11.10;93.70
12384;DHT22;6256;63.808;20.336;2023-05-29T16:48:30;11.00;94.10
12384;DHT22;6256;63.808;20.336;2023-05-29T16:50:56;10.90;94.40
12384;DHT22;6256;63.808;20.336;2023-05-29T16:53:22;11.00;95.00
12384;DHT22;6256;63.808;20.336;2023-05-29T16:55:48;11.00;95.70